createdAt,value
2022-10-21T00:00:56.665Z,19.40
2022-10-21T00:03:25.595Z,19.40
2022-10-21T00:05:53.425Z,19.40
2022-10-21T00:08:21.753Z,19.30
2022-10-21T00:10:58.889Z,19.30
2022-10-21T00:13:27.627Z,19.30
2022-10-21T00:16:07.815Z,19.20
2022-10-21T00:18:39.184Z,19.20
2022-10-21T00:21:09.351Z,19.20
2022-10-21T00:23:36.600Z,19.20
2022-10-21T00:26:06.812Z,19.20
2022-10-21T00:28:34.550Z,19.10
2022-10-21T00:31:04.159Z,19.10
2022-10-21T00:33:34.027Z,19.10
2022-10-21T00:36:06.106Z,19.00
2022-10-21T00:38:34.614Z,19.00
2022-10-21T00:41:04.502Z,19.00
2022-10-21T00:43:31.847Z,18.90
2022-10-21T00:46:07.156Z,18.90
2022-10-21T00:48:35.944Z,18.90
2022-10-21T00:51:11.112Z,18.90
2022-10-21T00:53:42.411Z,18.90
2022-10-21T00:56:16.804Z,18.80
2022-10-21T00:58:46.818Z,18.80
2022-10-21T01:01:19.403Z,18.80
2022-10-21T01:03:50.130Z,18.80
2022-10-21T01:06:21.170Z,18.80
2022-10-21T01:08:53.006Z,18.70
2022-10-21T01:11:22.566Z,18.70
2022-10-21T01:14:37.782Z,18.70
2022-10-21T01:17:20.627Z,18.70
2022-10-21T01:20:10.149Z,18.60
2022-10-21T01:22:40.096Z,18.60
2022-10-21T01:25:13.029Z,18.50
2022-10-21T01:27:59.635Z,18.50
2022-10-21T01:30:44.787Z,18.50
2022-10-21T01:33:45.504Z,18.40
2022-10-21T01:36:37.071Z,18.40
2022-10-21T01:39:48.873Z,18.40
2022-10-21T01:42:51.588Z,18.30
2022-10-21T01:45:45.973Z,18.30
2022-10-21T01:48:19.092Z,18.30
2022-10-21T01:50:54.011Z,18.20
2022-10-21T01:53:24.272Z,18.20
2022-10-21T01:55:52.791Z,18.20
2022-10-21T01:58:24.042Z,18.20
2022-10-21T02:00:53.995Z,18.20
2022-10-21T02:03:29.717Z,18.10
2022-10-21T02:05:57.231Z,18.10
2022-10-21T02:08:24.577Z,18.10
2022-10-21T02:10:56.593Z,18.00
2022-10-21T02:13:27.287Z,18.00
2022-10-21T02:15:59.823Z,18.00
2022-10-21T02:18:29.370Z,18.00
2022-10-21T02:21:02.079Z,18.00
2022-10-21T02:23:41.498Z,17.90
2022-10-21T02:26:09.145Z,17.90
2022-10-21T02:28:36.689Z,17.90
2022-10-21T02:31:22.167Z,17.90
2022-10-21T02:34:06.272Z,17.80
2022-10-21T02:36:58.566Z,17.80
2022-10-21T02:39:56.252Z,17.80
2022-10-21T02:42:27.052Z,17.80
2022-10-21T02:44:54.473Z,17.70
2022-10-21T02:47:26.031Z,17.70
2022-10-21T02:49:53.248Z,17.70
2022-10-21T02:52:22.726Z,17.70
2022-10-21T02:54:49.883Z,17.60
2022-10-21T02:57:17.045Z,17.60
2022-10-21T02:59:44.305Z,17.60
2022-10-21T03:02:11.443Z,17.60
2022-10-21T03:04:38.731Z,17.50
2022-10-21T03:07:06.230Z,17.50
2022-10-21T03:09:33.457Z,17.50
2022-10-21T03:12:00.705Z,17.50
2022-10-21T03:14:27.910Z,17.50
2022-10-21T03:16:55.269Z,17.40
2022-10-21T03:19:22.410Z,17.40
2022-10-21T03:21:49.634Z,17.40
2022-10-21T03:24:27.789Z,17.40
2022-10-21T03:26:56.382Z,17.30
2022-10-21T03:29:23.623Z,17.30
2022-10-21T03:31:50.846Z,17.30
2022-10-21T03:34:18.105Z,17.20
2022-10-21T03:36:45.322Z,17.20
2022-10-21T03:39:12.814Z,17.20
2022-10-21T03:41:40.263Z,17.20
2022-10-21T03:44:07.547Z,17.10
2022-10-21T03:46:34.745Z,17.10
2022-10-21T03:49:04.196Z,17.10
2022-10-21T03:51:32.866Z,17.10
2022-10-21T03:54:00.117Z,17.00
2022-10-21T03:56:29.538Z,17.00
2022-10-21T03:58:58.846Z,17.00
2022-10-21T04:01:26.819Z,17.00
2022-10-21T04:03:54.250Z,17.00
2022-10-21T04:06:23.512Z,17.00
2022-10-21T04:08:50.729Z,17.00
2022-10-21T04:11:18.052Z,16.90
2022-10-21T04:13:45.302Z,16.90
2022-10-21T04:16:19.668Z,16.90
2022-10-21T04:18:49.217Z,16.90
2022-10-21T04:21:18.632Z,16.80
2022-10-21T04:23:45.849Z,16.80
2022-10-21T04:26:13.185Z,16.80
2022-10-21T04:28:42.659Z,16.80
2022-10-21T04:31:10.153Z,16.80
2022-10-21T04:33:37.506Z,16.80
2022-10-21T04:36:05.030Z,16.80
2022-10-21T04:38:34.942Z,16.80
2022-10-21T04:41:03.696Z,16.80
2022-10-21T04:43:30.979Z,16.80
2022-10-21T04:46:00.690Z,16.80
2022-10-21T04:48:27.864Z,16.80
2022-10-21T04:50:56.286Z,16.80
2022-10-21T04:53:23.891Z,16.70
2022-10-21T04:55:52.906Z,16.70
2022-10-21T04:58:22.108Z,16.70
2022-10-21T05:00:53.028Z,16.80
2022-10-21T05:03:25.270Z,16.80
2022-10-21T05:05:52.906Z,16.80
2022-10-21T05:08:22.690Z,16.80
2022-10-21T05:10:52.214Z,16.80
2022-10-21T05:13:21.566Z,16.80
2022-10-21T05:15:48.797Z,16.80
2022-10-21T05:18:15.993Z,16.80
2022-10-21T05:20:43.196Z,16.90
2022-10-21T05:23:10.480Z,16.90
2022-10-21T05:25:37.627Z,16.90
2022-10-21T05:28:04.910Z,16.90
2022-10-21T05:30:34.237Z,16.90
2022-10-21T05:33:01.528Z,17.00
2022-10-21T05:35:28.756Z,17.00
2022-10-21T05:37:56.261Z,17.00
2022-10-21T05:40:25.898Z,17.00
2022-10-21T05:42:53.027Z,17.00
2022-10-21T05:45:22.697Z,17.00
2022-10-21T05:47:49.979Z,17.00
2022-10-21T05:50:17.165Z,17.10
2022-10-21T05:52:44.381Z,17.10
2022-10-21T05:55:11.776Z,17.10
2022-10-21T05:57:39.301Z,17.10
2022-10-21T06:00:07.734Z,17.10
2022-10-21T06:02:34.952Z,17.10
2022-10-21T06:05:02.280Z,17.20
2022-10-21T06:07:29.467Z,17.20
2022-10-21T06:10:01.488Z,17.20
2022-10-21T06:12:33.619Z,17.20
2022-10-21T06:15:00.798Z,17.20
2022-10-21T06:17:28.084Z,17.20
2022-10-21T06:19:55.286Z,17.30
2022-10-21T06:22:22.611Z,17.30
2022-10-21T06:24:50.789Z,17.30
2022-10-21T06:27:20.166Z,17.30
2022-10-21T06:29:47.447Z,17.30
2022-10-21T06:32:14.675Z,17.30
2022-10-21T06:34:41.883Z,17.40
2022-10-21T06:37:09.293Z,17.40
2022-10-21T06:39:36.488Z,17.40
2022-10-21T06:42:03.755Z,17.40
2022-10-21T06:44:30.967Z,17.40
2022-10-21T06:46:58.149Z,17.40
2022-10-21T06:49:25.341Z,17.50
2022-10-21T06:51:52.647Z,17.50
2022-10-21T06:54:22.183Z,17.50
2022-10-21T06:56:51.399Z,17.50
2022-10-21T06:59:18.663Z,17.50
2022-10-21T07:01:59.675Z,17.60
2022-10-21T07:04:27.553Z,17.60
2022-10-21T07:06:54.946Z,17.60
2022-10-21T07:09:22.658Z,17.60
2022-10-21T07:11:49.978Z,17.60
2022-10-21T07:14:17.214Z,17.60
2022-10-21T07:16:47.845Z,17.70
2022-10-21T07:19:15.145Z,17.70
2022-10-21T07:21:43.033Z,17.70
2022-10-21T07:24:10.423Z,17.70
2022-10-21T07:26:37.695Z,17.70
2022-10-21T07:29:05.949Z,17.70
2022-10-21T07:31:35.967Z,17.80
2022-10-21T07:34:10.933Z,17.80
2022-10-21T07:36:41.265Z,17.80
2022-10-21T07:39:12.678Z,17.80
2022-10-21T07:41:43.757Z,17.80
2022-10-21T07:44:11.462Z,17.80
2022-10-21T07:46:41.684Z,17.90
2022-10-21T07:49:09.909Z,17.90
2022-10-21T07:51:40.108Z,17.90
2022-10-21T07:54:08.303Z,17.90
2022-10-21T07:56:40.761Z,17.90
2022-10-21T07:59:12.650Z,18.00
2022-10-21T08:01:44.713Z,18.00
2022-10-21T08:04:14.727Z,18.00
2022-10-21T08:06:42.489Z,18.00
2022-10-21T08:09:10.246Z,18.10
2022-10-21T08:11:37.853Z,18.00
2022-10-21T08:14:07.814Z,18.10
2022-10-21T08:16:35.917Z,18.20
2022-10-21T08:19:04.820Z,18.20
2022-10-21T08:21:32.414Z,18.20
2022-10-21T08:24:02.116Z,18.20
2022-10-21T08:26:31.744Z,18.20
2022-10-21T08:31:31.504Z,18.30
2022-10-21T08:33:59.404Z,18.30
2022-10-21T08:36:26.908Z,18.40
2022-10-21T08:38:58.556Z,18.40
2022-10-21T08:41:31.474Z,18.40
2022-10-21T08:44:16.814Z,18.40
2022-10-21T08:49:42.904Z,18.50
2022-10-21T08:52:15.337Z,18.60
2022-10-21T08:54:55.238Z,18.60
2022-10-21T08:57:22.922Z,18.60
2022-10-21T08:59:55.325Z,18.70
2022-10-21T09:02:29.434Z,18.70
2022-10-21T09:05:41.470Z,18.80
2022-10-21T09:08:24.949Z,18.80
2022-10-21T09:11:08.200Z,18.80
2022-10-21T09:13:50.329Z,18.80
2022-10-21T09:16:41.204Z,18.90
2022-10-21T09:19:25.460Z,18.90
2022-10-21T09:22:34.874Z,18.90
2022-10-21T09:25:19.327Z,19.00
2022-10-21T09:28:02.980Z,19.00
2022-10-21T09:30:30.593Z,19.00
2022-10-21T09:32:59.978Z,19.00
2022-10-21T09:35:44.615Z,19.00
2022-10-21T09:38:26.252Z,19.10
2022-10-21T09:41:03.109Z,19.10
2022-10-21T09:43:31.450Z,19.20
2022-10-21T09:45:59.166Z,19.20
2022-10-21T09:49:00.938Z,19.30
2022-10-21T09:51:32.549Z,19.30
2022-10-21T09:54:08.391Z,19.40
2022-10-21T09:56:49.699Z,19.40
2022-10-21T09:59:19.603Z,19.40
2022-10-21T10:01:48.703Z,19.50
2022-10-21T10:04:33.391Z,19.50
2022-10-21T10:07:02.881Z,19.50
2022-10-21T10:09:32.272Z,19.60
2022-10-21T10:12:10.373Z,19.70
2022-10-21T10:14:42.703Z,19.70
2022-10-21T10:17:30.164Z,19.80
2022-10-21T10:20:12.505Z,19.90
2022-10-21T10:22:44.939Z,19.90
2022-10-21T10:25:12.066Z,20.00
2022-10-21T10:28:16.026Z,20.00
2022-10-21T10:30:43.280Z,20.10
2022-10-21T10:33:22.056Z,20.10
2022-10-21T10:35:55.516Z,20.10
2022-10-21T10:38:36.889Z,20.20
2022-10-21T10:41:15.218Z,20.30
2022-10-21T10:43:55.773Z,20.30
2022-10-21T10:46:25.860Z,20.30
2022-10-21T10:49:00.857Z,20.40
2022-10-21T10:51:34.302Z,20.40
2022-10-21T10:54:06.584Z,20.40
2022-10-21T10:56:50.243Z,20.40
2022-10-21T10:59:23.046Z,20.50
2022-10-21T11:02:09.032Z,20.50
2022-10-21T11:05:07.219Z,20.50
2022-10-21T11:07:45.296Z,20.60
2022-10-21T11:10:34.245Z,20.60
2022-10-21T11:13:03.865Z,20.60
2022-10-21T11:15:53.540Z,20.70
2022-10-21T11:18:24.811Z,20.70
2022-10-21T11:21:07.865Z,20.70
2022-10-21T11:23:35.250Z,20.80
2022-10-21T11:26:38.851Z,20.80
2022-10-21T11:29:36.911Z,20.90
2022-10-21T11:32:12.680Z,20.90
2022-10-21T11:35:04.384Z,20.90
2022-10-21T11:37:46.836Z,21.00
2022-10-21T11:40:51.386Z,21.00
2022-10-21T11:43:49.912Z,21.00
2022-10-21T11:46:35.975Z,21.00
2022-10-21T11:49:37.439Z,21.00
2022-10-21T11:52:23.035Z,21.00
2022-10-21T11:55:15.933Z,21.10
2022-10-21T11:58:02.374Z,21.10
2022-10-21T12:00:38.549Z,21.10
2022-10-21T12:03:24.641Z,21.10
2022-10-21T12:06:15.049Z,21.20
2022-10-21T12:09:22.721Z,21.20
2022-10-21T12:11:56.795Z,21.20
2022-10-21T12:14:49.018Z,21.30
2022-10-21T12:17:21.654Z,21.30
2022-10-21T12:20:22.959Z,21.30
2022-10-21T12:22:57.694Z,21.30
2022-10-21T12:25:38.419Z,21.30
2022-10-21T12:28:14.040Z,21.30
2022-10-21T12:30:44.050Z,21.30
2022-10-21T12:33:43.415Z,21.30
2022-10-21T12:36:20.318Z,21.30
2022-10-21T12:38:49.687Z,21.30
2022-10-21T12:41:36.387Z,21.30
2022-10-21T12:44:03.810Z,21.30
2022-10-21T12:46:36.085Z,21.30
2022-10-21T12:49:19.016Z,21.30
2022-10-21T12:51:55.449Z,21.40
2022-10-21T12:54:30.380Z,21.40
2022-10-21T12:57:10.841Z,21.40
2022-10-21T12:59:41.241Z,21.40
2022-10-21T13:02:19.064Z,21.40
2022-10-21T13:04:49.104Z,21.40
2022-10-21T13:07:16.533Z,21.40
2022-10-21T13:09:51.092Z,21.40
2022-10-21T13:12:24.350Z,21.40
2022-10-21T13:15:14.994Z,21.40
2022-10-21T13:17:56.032Z,21.40
2022-10-21T13:20:23.387Z,21.50
2022-10-21T13:23:05.940Z,21.40
2022-10-21T13:25:36.465Z,21.50
2022-10-21T13:28:06.090Z,21.50
2022-10-21T13:30:41.675Z,21.50
2022-10-21T13:33:32.317Z,21.50
2022-10-21T13:36:12.555Z,21.60
2022-10-21T13:38:55.458Z,21.70
2022-10-21T13:41:33.311Z,21.70
2022-10-21T13:44:05.272Z,21.70
2022-10-21T13:46:39.213Z,21.70
2022-10-21T13:49:27.968Z,21.70
2022-10-21T13:51:55.400Z,21.70
2022-10-21T13:54:22.790Z,21.70
2022-10-21T13:56:50.282Z,21.70
2022-10-21T13:59:27.082Z,21.70
2022-10-21T14:01:56.818Z,21.70
2022-10-21T14:04:31.843Z,21.70
2022-10-21T14:07:04.899Z,21.70
2022-10-21T14:09:35.511Z,21.70
2022-10-21T14:12:08.886Z,21.70
2022-10-21T14:14:39.191Z,21.70
2022-10-21T14:17:09.514Z,21.70
2022-10-21T14:19:38.883Z,21.70
2022-10-21T14:22:09.895Z,21.70
2022-10-21T14:24:46.851Z,21.70
2022-10-21T14:27:25.688Z,21.70
2022-10-21T14:29:53.371Z,21.70
2022-10-21T14:32:22.513Z,21.70
2022-10-21T14:35:10.392Z,21.70
2022-10-21T14:37:46.798Z,21.70
2022-10-21T14:40:26.193Z,21.70
2022-10-21T14:42:55.231Z,21.70
2022-10-21T14:45:37.994Z,21.70
2022-10-21T14:48:14.501Z,21.80
2022-10-21T14:50:42.892Z,21.80
2022-10-21T14:53:16.899Z,21.80
2022-10-21T14:55:45.909Z,21.80
2022-10-21T14:58:35.615Z,21.80
2022-10-21T15:01:12.251Z,21.80
2022-10-21T15:03:45.543Z,21.90
2022-10-21T15:06:23.585Z,21.80
2022-10-21T15:08:56.831Z,21.80
2022-10-21T15:11:29.813Z,21.80
2022-10-21T15:14:10.663Z,21.80
2022-10-21T15:16:39.319Z,21.80
2022-10-21T15:19:08.462Z,21.80
2022-10-21T15:21:37.652Z,21.80
2022-10-21T15:24:06.208Z,21.80
2022-10-21T15:26:40.488Z,21.80
2022-10-21T15:29:21.875Z,21.80
2022-10-21T15:31:49.136Z,21.70
2022-10-21T15:34:16.783Z,21.70
2022-10-21T15:36:44.255Z,21.70
2022-10-21T15:39:13.513Z,21.70
2022-10-21T15:41:41.110Z,21.60
2022-10-21T15:44:30.287Z,21.60
2022-10-21T15:47:01.026Z,21.60
2022-10-21T15:49:42.159Z,21.50
2022-10-21T15:52:10.318Z,21.50
2022-10-21T15:54:37.662Z,21.50
2022-10-21T15:57:25.102Z,21.40
2022-10-21T15:59:52.337Z,21.40
2022-10-21T16:02:19.659Z,21.40
2022-10-21T16:04:46.905Z,21.30
2022-10-21T16:07:28.971Z,21.30
2022-10-21T16:09:57.122Z,21.30
2022-10-21T16:12:27.005Z,21.30
2022-10-21T16:14:54.337Z,21.20
2022-10-21T16:17:28.444Z,21.20
2022-10-21T16:19:57.819Z,21.20
2022-10-21T16:22:24.998Z,21.10
2022-10-21T16:24:52.269Z,21.10
2022-10-21T16:27:31.336Z,21.10
2022-10-21T16:30:19.358Z,21.00
2022-10-21T16:32:46.738Z,21.00
2022-10-21T16:35:15.369Z,20.90
2022-10-21T16:37:43.517Z,20.90
2022-10-21T16:40:34.938Z,20.90
2022-10-21T16:43:02.306Z,20.80
2022-10-21T16:45:31.068Z,20.80
2022-10-21T16:48:00.573Z,20.70
2022-10-21T16:50:45.518Z,20.70
2022-10-21T16:53:15.480Z,20.70
2022-10-21T16:55:42.787Z,20.60
2022-10-21T16:58:10.067Z,20.60
2022-10-21T17:00:37.479Z,20.50
2022-10-21T17:03:04.824Z,20.50
2022-10-21T17:05:32.015Z,20.50
2022-10-21T17:07:59.983Z,20.50
2022-10-21T17:10:30.029Z,20.40
2022-10-21T17:12:59.352Z,20.40
2022-10-21T17:15:27.306Z,20.40
2022-10-21T17:17:54.538Z,20.40
2022-10-21T17:20:21.786Z,20.30
2022-10-21T17:22:48.967Z,20.30
2022-10-21T17:25:18.558Z,20.30
2022-10-21T17:27:46.118Z,20.30
2022-10-21T17:30:13.401Z,20.20
2022-10-21T17:32:43.572Z,20.20
2022-10-21T17:35:18.411Z,20.20
2022-10-21T17:37:50.004Z,20.10
2022-10-21T17:40:23.578Z,20.10
2022-10-21T17:42:51.057Z,20.10
2022-10-21T17:45:22.111Z,20.00
2022-10-21T17:47:52.686Z,20.00
2022-10-21T17:50:23.700Z,20.00
2022-10-21T17:52:51.963Z,20.00
2022-10-21T17:55:20.044Z,19.90
2022-10-21T17:57:47.386Z,19.90
2022-10-21T18:00:15.076Z,19.90
2022-10-21T18:02:44.450Z,19.80
2022-10-21T18:05:13.767Z,19.80
2022-10-21T18:07:41.323Z,19.80
2022-10-21T18:10:09.442Z,19.80
2022-10-21T18:12:36.927Z,19.80
2022-10-21T18:15:05.152Z,19.70
2022-10-21T18:17:33.513Z,19.70
2022-10-21T18:20:03.653Z,19.70
2022-10-21T18:22:33.039Z,19.70
2022-10-21T18:25:00.294Z,19.70
2022-10-21T18:27:27.481Z,19.70
2022-10-21T18:29:54.723Z,19.70
2022-10-21T18:32:22.161Z,19.70
2022-10-21T18:34:49.334Z,19.70
2022-10-21T18:37:19.687Z,19.60
2022-10-21T18:39:46.883Z,19.60
2022-10-21T18:42:14.171Z,19.60
2022-10-21T18:44:41.607Z,19.60
2022-10-21T18:47:11.850Z,19.60
2022-10-21T18:49:39.088Z,19.60
2022-10-21T18:52:06.310Z,19.60
2022-10-21T18:54:33.487Z,19.60
2022-10-21T18:57:00.697Z,19.50
2022-10-21T18:59:28.984Z,19.50
2022-10-21T19:01:56.390Z,19.50
2022-10-21T19:04:23.656Z,19.50
2022-10-21T19:06:50.807Z,19.50
2022-10-21T19:09:23.262Z,19.50
2022-10-21T19:11:50.504Z,19.50
2022-10-21T19:14:21.167Z,19.50
2022-10-21T19:16:48.873Z,19.50
2022-10-21T19:19:17.140Z,19.50
2022-10-21T19:21:44.425Z,19.50
2022-10-21T19:24:11.640Z,19.50
2022-10-21T19:26:42.687Z,19.40
2022-10-21T19:29:16.816Z,19.40
2022-10-21T19:34:14.044Z,19.40
2022-10-21T19:36:43.609Z,19.40
2022-10-21T19:39:11.119Z,19.40
2022-10-21T19:41:38.367Z,19.40
2022-10-21T19:44:05.743Z,19.40
2022-10-21T19:46:35.883Z,19.40
2022-10-21T19:49:08.037Z,19.40
2022-10-21T19:51:36.674Z,19.40
2022-10-21T19:54:08.153Z,19.40
2022-10-21T19:56:35.783Z,19.30
2022-10-21T19:59:06.127Z,19.30
2022-10-21T20:01:34.533Z,19.30
2022-10-21T20:04:02.999Z,19.30
2022-10-21T20:06:35.976Z,19.30
2022-10-21T20:09:09.257Z,19.20
2022-10-21T20:11:37.183Z,19.20
2022-10-21T20:14:04.811Z,19.20
2022-10-21T20:16:36.596Z,19.20
2022-10-21T20:19:05.923Z,19.20
2022-10-21T20:21:34.260Z,19.10
2022-10-21T20:24:01.479Z,19.10
2022-10-21T20:26:29.126Z,19.10
2022-10-21T20:28:56.999Z,19.10
2022-10-21T20:31:24.417Z,19.10
2022-10-21T20:33:52.207Z,19.10
2022-10-21T20:36:28.268Z,19.10
2022-10-21T20:38:58.435Z,19.00
2022-10-21T20:41:31.022Z,19.00
2022-10-21T20:43:58.228Z,19.00
2022-10-21T20:46:29.449Z,19.00
2022-10-21T20:48:56.683Z,19.00
2022-10-21T20:51:26.846Z,19.00
2022-10-21T20:53:58.866Z,19.00
2022-10-21T20:56:31.980Z,19.00
2022-10-21T20:59:02.515Z,18.90
2022-10-21T21:01:34.735Z,18.90
2022-10-21T21:04:08.222Z,18.90
2022-10-21T21:06:38.330Z,18.90
2022-10-21T21:11:53.676Z,18.80
2022-10-21T21:14:21.081Z,18.80
2022-10-21T21:16:48.323Z,18.80
2022-10-21T21:19:15.790Z,18.80
2022-10-21T21:21:42.950Z,18.80
2022-10-21T21:24:10.170Z,18.80
2022-10-21T21:26:39.244Z,18.80
2022-10-21T21:29:08.220Z,18.80
2022-10-21T21:31:37.373Z,18.80
2022-10-21T21:34:05.437Z,18.70
2022-10-21T21:36:33.070Z,18.70
2022-10-21T21:39:00.287Z,18.70
2022-10-21T21:41:27.900Z,18.70
2022-10-21T21:43:56.699Z,18.70
2022-10-21T21:46:25.467Z,18.70
2022-10-21T21:49:01.046Z,18.70
2022-10-21T21:51:35.847Z,18.60
2022-10-21T21:54:07.856Z,18.60
2022-10-21T21:56:35.597Z,18.60
2022-10-21T21:59:02.959Z,18.60
2022-10-21T22:01:33.153Z,18.60
2022-10-21T22:04:00.674Z,18.60
2022-10-21T22:06:31.203Z,18.60
2022-10-21T22:08:59.312Z,18.60
2022-10-21T22:11:32.461Z,18.60
2022-10-21T22:13:59.762Z,18.60
2022-10-21T22:16:32.470Z,18.50
2022-10-21T22:19:03.289Z,18.50
2022-10-21T22:21:31.409Z,18.50
2022-10-21T22:24:01.134Z,18.40
2022-10-21T22:26:30.647Z,18.40
2022-10-21T22:28:57.860Z,18.40
2022-10-21T22:31:29.287Z,18.40
2022-10-21T22:34:04.221Z,18.40
2022-10-21T22:36:33.901Z,18.30
2022-10-21T22:39:01.089Z,18.30
2022-10-21T22:41:28.294Z,18.30
2022-10-21T22:43:57.715Z,18.30
2022-10-21T22:46:34.219Z,18.20
2022-10-21T22:49:05.814Z,18.20
2022-10-21T22:51:33.738Z,18.20
2022-10-21T22:54:01.313Z,18.10
2022-10-21T22:56:32.214Z,18.10
2022-10-21T22:59:01.927Z,18.00
2022-10-21T23:01:30.658Z,18.00
2022-10-21T23:04:04.762Z,18.00
2022-10-21T23:06:36.611Z,18.00
2022-10-21T23:09:06.985Z,17.90
2022-10-21T23:11:34.839Z,17.90
2022-10-21T23:14:03.162Z,17.80
2022-10-21T23:16:35.351Z,17.80
2022-10-21T23:19:05.110Z,17.80
2022-10-21T23:21:32.435Z,17.80
2022-10-21T23:24:01.768Z,17.70
2022-10-21T23:26:28.927Z,17.70
2022-10-21T23:28:57.324Z,17.60
2022-10-21T23:31:24.590Z,17.60
2022-10-21T23:33:51.750Z,17.50
2022-10-21T23:36:19.019Z,17.50
2022-10-21T23:38:48.465Z,17.50
2022-10-21T23:41:15.650Z,17.40
2022-10-21T23:43:42.918Z,17.40
2022-10-21T23:46:10.130Z,17.30
2022-10-21T23:48:37.362Z,17.30
2022-10-21T23:51:05.239Z,17.30
2022-10-21T23:53:32.495Z,17.20
2022-10-21T23:55:59.649Z,17.20
2022-10-21T23:58:26.867Z,17.20
